createdAt,value
2022-08-19T03:58:26.410Z,26.86
2022-08-19T04:01:34.738Z,26.86
2022-08-19T04:04:44.073Z,26.19
2022-08-19T04:07:46.566Z,26.14
2022-08-19T04:10:50.063Z,26.19
2022-08-19T04:13:54.046Z,26.23
2022-08-19T04:16:57.382Z,26.23
2022-08-19T04:20:00.613Z,26.34
2022-08-19T04:23:03.391Z,26.33
2022-08-19T04:26:05.818Z,26.33
2022-08-19T04:29:16.690Z,26.40
2022-08-19T04:32:19.084Z,26.32
2022-08-19T04:35:24.787Z,26.32
2022-08-19T04:38:27.469Z,26.29
2022-08-19T04:41:48.488Z,26.33
2022-08-19T04:44:51.691Z,26.32
2022-08-19T04:48:27.318Z,26.31
2022-08-19T04:51:21.611Z,26.34
2022-08-19T04:54:38.625Z,26.38
2022-08-19T04:57:41.643Z,26.43
2022-08-19T05:00:44.807Z,26.52
2022-08-19T05:03:47.205Z,26.50
2022-08-19T05:06:51.555Z,26.63
2022-08-19T05:09:57.765Z,26.63
2022-08-19T05:13:01.827Z,26.71
2022-08-19T05:16:04.475Z,26.82
2022-08-19T05:19:25.605Z,26.83
2022-08-19T05:22:33.878Z,26.86
2022-08-19T05:25:40.829Z,27.00
2022-08-19T05:28:44.243Z,27.17
2022-08-19T05:31:52.075Z,27.31
2022-08-19T05:34:54.842Z,27.35
2022-08-19T05:37:59.149Z,27.41
2022-08-19T05:41:01.621Z,27.43
2022-08-19T05:44:10.214Z,27.48
2022-08-19T05:47:15.752Z,27.57
2022-08-19T05:50:18.555Z,27.66
2022-08-19T05:53:20.892Z,27.65
2022-08-19T05:56:23.636Z,27.77
2022-08-19T05:59:26.370Z,27.85
2022-08-19T06:02:34.276Z,27.92
2022-08-19T06:05:46.234Z,28.02
2022-08-19T06:08:54.695Z,28.23
2022-08-19T06:12:00.753Z,28.37
2022-08-19T06:15:07.377Z,28.43
2022-08-19T06:18:10.031Z,28.49
2022-08-19T06:21:12.411Z,28.53
2022-08-19T06:24:18.630Z,28.63
2022-08-19T06:27:22.237Z,28.64
2022-08-19T06:30:25.244Z,28.75
2022-08-19T06:33:28.286Z,28.97
2022-08-19T06:36:38.244Z,29.01
2022-08-19T06:39:43.399Z,29.17
2022-08-19T06:42:54.715Z,29.34
2022-08-19T06:45:57.945Z,29.37
2022-08-19T06:49:01.901Z,29.43
2022-08-19T06:52:06.333Z,29.52
2022-08-19T06:55:09.405Z,29.65
2022-08-19T06:58:11.862Z,29.72
2022-08-19T07:01:14.734Z,29.84
2022-08-19T07:04:18.076Z,30.13
2022-08-19T07:07:22.063Z,30.67
2022-08-19T07:10:25.716Z,30.72
2022-08-19T07:13:28.596Z,30.83
2022-08-19T07:16:31.126Z,30.77
2022-08-19T07:19:35.640Z,30.97
2022-08-19T07:22:40.113Z,31.04
2022-08-19T07:25:44.295Z,31.26
2022-08-19T07:28:52.872Z,31.31
2022-08-19T07:31:57.454Z,31.44
2022-08-19T07:35:04.294Z,31.20
2022-08-19T07:38:07.150Z,31.17
2022-08-19T07:41:14.110Z,31.32
2022-08-19T07:44:17.874Z,31.33
2022-08-19T07:47:49.207Z,31.54
2022-08-19T07:50:43.337Z,31.68
2022-08-19T07:53:47.472Z,31.82
2022-08-19T07:56:52.511Z,32.05
2022-08-19T07:59:55.391Z,32.19
2022-08-19T08:02:58.160Z,32.42
2022-08-19T08:06:19.503Z,32.56
2022-08-19T08:09:43.164Z,32.71
2022-08-19T08:13:08.953Z,32.81
2022-08-19T08:16:14.159Z,32.96
2022-08-19T08:19:25.290Z,33.04
2022-08-19T08:22:47.059Z,33.03
2022-08-19T08:25:50.474Z,33.19
2022-08-19T08:28:54.272Z,33.37
2022-08-19T08:31:59.696Z,33.45
2022-08-19T08:35:02.899Z,33.40
2022-08-19T08:38:05.847Z,33.62
2022-08-19T08:41:47.555Z,33.87
2022-08-19T08:45:04.056Z,33.98
2022-08-19T08:48:25.195Z,33.97
2022-08-19T08:51:36.117Z,33.87
2022-08-19T08:54:55.019Z,34.04
2022-08-19T08:58:10.788Z,34.06
2022-08-19T09:01:13.436Z,34.16
2022-08-19T09:04:17.037Z,34.07
2022-08-19T09:07:41.512Z,34.00
2022-08-19T09:10:55.361Z,34.06
2022-08-19T09:14:34.999Z,34.14
2022-08-19T09:17:36.522Z,34.16
2022-08-19T09:20:42.581Z,34.39
2022-08-19T09:23:45.822Z,34.35
2022-08-19T09:26:53.262Z,34.50
2022-08-19T09:29:55.931Z,34.77
2022-08-19T09:32:58.142Z,34.93
2022-08-19T09:36:10.073Z,34.94
2022-08-19T09:39:16.163Z,34.95
2022-08-19T09:42:30.110Z,35.24
2022-08-19T09:45:37.595Z,34.86
2022-08-19T09:48:41.504Z,34.99
2022-08-19T09:51:46.834Z,35.03
2022-08-19T09:54:54.184Z,35.45
2022-08-19T09:57:56.609Z,35.65
2022-08-19T10:01:00.979Z,35.81
2022-08-19T10:04:14.927Z,36.08
2022-08-19T10:07:23.010Z,36.10
2022-08-19T10:10:38.813Z,36.12
2022-08-19T10:13:46.162Z,36.15
2022-08-19T10:16:48.822Z,36.01
2022-08-19T10:19:55.514Z,36.18
2022-08-19T10:23:00.410Z,36.50
2022-08-19T10:26:07.086Z,36.55
2022-08-19T10:29:11.432Z,36.36
2022-08-19T10:32:14.371Z,36.36
2022-08-19T10:35:22.067Z,36.13
2022-08-19T10:38:31.844Z,36.34
2022-08-19T10:41:38.954Z,36.25
2022-08-19T10:44:42.293Z,36.48
2022-08-19T10:47:45.083Z,36.63
2022-08-19T10:51:05.842Z,36.66
2022-08-19T10:54:12.532Z,36.48
2022-08-19T10:57:16.508Z,36.78
2022-08-19T11:00:21.558Z,36.64
2022-08-19T11:03:25.696Z,36.61
2022-08-19T11:06:28.975Z,36.60
2022-08-19T11:09:34.411Z,36.74
2022-08-19T11:12:40.154Z,36.96
2022-08-19T11:15:42.837Z,37.32
2022-08-19T11:18:50.560Z,37.33
2022-08-19T11:21:55.348Z,37.29
2022-08-19T11:25:00.361Z,37.12
2022-08-19T11:28:02.902Z,37.17
2022-08-19T11:31:10.226Z,37.06
2022-08-19T11:34:17.370Z,37.04
2022-08-19T11:37:20.335Z,37.04
2022-08-19T11:40:24.189Z,37.02
2022-08-19T11:43:27.792Z,37.15
2022-08-19T11:46:30.476Z,37.21
2022-08-19T11:49:33.263Z,37.28
2022-08-19T11:52:35.728Z,37.61
2022-08-19T11:55:44.321Z,37.97
2022-08-19T11:58:47.698Z,38.03
2022-08-19T12:01:50.345Z,38.32
2022-08-19T12:04:52.967Z,38.57
2022-08-19T12:07:55.743Z,38.28
2022-08-19T12:10:58.670Z,38.44
2022-08-19T12:14:01.349Z,38.39
2022-08-19T12:17:07.302Z,38.35
2022-08-19T12:20:12.420Z,38.11
2022-08-19T12:23:15.199Z,38.18
2022-08-19T12:26:18.815Z,38.21
2022-08-19T12:29:23.828Z,37.99
2022-08-19T12:32:27.528Z,38.22
2022-08-19T12:35:31.766Z,38.36
2022-08-19T12:38:38.130Z,38.02
2022-08-19T12:41:43.318Z,37.84
2022-08-19T12:44:56.987Z,37.86
2022-08-19T12:48:00.102Z,37.90
2022-08-19T12:51:11.365Z,37.81
2022-08-19T12:54:14.122Z,37.87
2022-08-19T12:57:16.667Z,38.05
2022-08-19T13:00:22.253Z,38.08
2022-08-19T13:03:29.979Z,38.26
2022-08-19T13:06:32.597Z,38.31
2022-08-19T13:09:35.275Z,38.37
2022-08-19T13:12:38.383Z,38.54
2022-08-19T13:15:42.989Z,38.63
2022-08-19T13:18:53.674Z,38.77
2022-08-19T13:22:00.236Z,38.74
2022-08-19T13:25:06.790Z,38.27
2022-08-19T13:28:09.347Z,38.44
2022-08-19T13:31:36.826Z,38.41
2022-08-19T13:34:40.386Z,38.27
2022-08-19T13:37:43.178Z,37.82
2022-08-19T13:40:46.001Z,37.54
2022-08-19T13:43:49.815Z,37.18
2022-08-19T13:46:54.791Z,36.80
2022-08-19T13:49:57.614Z,37.08
2022-08-19T13:53:01.297Z,37.13
2022-08-19T13:56:06.714Z,37.31
2022-08-19T13:59:09.226Z,37.12
2022-08-19T14:02:12.006Z,36.52
2022-08-19T14:05:17.633Z,35.55
2022-08-19T14:08:20.211Z,34.67
2022-08-19T14:11:23.897Z,34.01
2022-08-19T14:14:26.268Z,33.65
2022-08-19T14:17:29.759Z,33.46
2022-08-19T14:20:35.952Z,33.60
2022-08-19T14:23:38.696Z,33.63
2022-08-19T14:26:40.952Z,33.65
2022-08-19T14:29:43.557Z,33.75
2022-08-19T14:32:46.567Z,33.50
2022-08-19T14:35:49.346Z,33.73
2022-08-19T14:38:51.853Z,33.72
2022-08-19T14:41:54.608Z,33.59
2022-08-19T14:45:01.127Z,33.34
2022-08-19T14:48:05.665Z,33.05
2022-08-19T14:51:08.820Z,33.05
2022-08-19T14:54:11.484Z,33.17
